Meteo Giornale » Osservazioni meteo Italia » Napoli-Capodichino

ore: 22:20 - Osservazioni Meteo Napoli-Capodichino
Lat. 40° 51' N Lon. 14° 18' E Alt. 88 metri s.l.m.

sereno Europe/Rome

18 °C

Sereno

Temp. 24 Ore

13 °C

26 °C

Nord

3.7 Km/h

Dew point 11 °C

Umidità 63 %

Visibilità  10 Km

Il sole sorge alle ore 06:08

Il sole tramonta alle ore 19:53

Data e Ora Cielo e Fenomeni T °C DP °C Um. % Pres. hPa Vis. km Vento km/h
Oggi h: 22:20 sereno Sereno 18 11 63 1017 10 N 3.7
Oggi h: 21:50 sereno Sereno 19 11 59 1017 10 N 3.7
Oggi h: 21:20 sereno Sereno 19 13 68 1017 10 N 1.8
Oggi h: 20:50 sereno Sereno 20 11 56 1017 10 N 3.7
Oggi h: 20:20 sereno Sereno 21 10 49 1016 10 O/NO 7.4
Oggi h: 19:50 sereno Sereno 22 10 46 1016 10 NO 7.4
Oggi h: 19:20 sereno Sereno 22 10 46 1016 10 NO 11.1
Oggi h: 18:50 sereno Sereno 23 11 46 1016 10 N 3.7
Oggi h: 18:20 sereno Sereno 24 10 41 1016 10 N 5.5
Oggi h: 17:50 sereno Sereno 26 7 29 1015 10 SO 7.4
Oggi h: 17:20 sereno Sereno 26 8 31 1015 10 SO 9.3
Oggi h: 16:50 sereno Sereno 26 9 34 1015 10 S/SO 11.1
Oggi h: 16:20 sereno Sereno 26 9 34 1015 10 SO 13
Oggi h: 15:50 sereno Sereno 25 8 33 1015 10 SO 14.8
Oggi h: 15:20 sereno Sereno 25 8 33 1015 10 O/SO 13
Oggi h: 14:50 sereno Sereno 25 9 36 1015 10 SO 14.8
Oggi h: 14:20 sereno Sereno 25 9 36 1015 10 SO 14.8
Oggi h: 13:50 sereno Sereno 25 10 38 1015 10 SO 13
Oggi h: 13:20 sereno Sereno 25 9 36 1015 10 SO 13
Oggi h: 12:50 sereno Sereno 25 11 41 1015 10 SO 11.1
Oggi h: 12:20 sereno Sereno 25 11 41 1015 10 S/SO 7.4
Oggi h: 11:50 sereno Sereno 25 11 41 1015 8 N 3.7
Oggi h: 11:20 sereno Sereno 24 12 47 1015 10 N 5.5
Oggi h: 10:50 sereno Sereno 23 11 46 1015 8 N 3.7
Oggi h: 10:20 sereno Sereno 21 13 60 1015 8 N 5.5
Oggi h: 09:50 sereno Sereno 20 13 64 1014 8 NE 7.4
Oggi h: 09:20 sereno Sereno 19 12 63 1014 8 NE 7.4
Oggi h: 08:50 sereno Sereno 18 11 63 1014 8 N 9.3
Oggi h: 08:20 sereno Sereno 17 12 72 1014 8 N 5.5
Oggi h: 07:50 sereno Sereno 15 12 82 1014 8 N 3.7
Oggi h: 07:20 sereno Sereno 14 11 82 1014 8 N 7.4
Oggi h: 06:50 sereno Sereno 13 11 87 1014 8 N 5.5
Oggi h: 06:20 sereno Sereno 14 11 82 1014 8 N 7.4
Oggi h: 05:50 sereno Sereno 13 12 93 1013 7 N 3.7
Oggi h: 05:20 sereno Sereno 13 11 87 1013 7 N 5.5
Oggi h: 04:50 sereno Sereno 13 11 87 1013 8 N 5.5
Oggi h: 04:20 sereno Sereno 13 12 93 1013 8 N 3.7
Oggi h: 03:50 sereno Sereno 13 11 87 1013 8 N 5.5
Oggi h: 03:20 sereno Sereno 14 12 87 1013 8 N 5.5
Oggi h: 02:50 sereno Sereno 13 11 87 1013 8 N 3.7
Oggi h: 02:20 sereno Sereno 15 12 82 1013 8 N 3.7
Oggi h: 01:50 sereno Sereno 15 12 82 1013 8 N 5.5
Oggi h: 01:20 sereno Sereno 15 13 87 1014 8 N 1.8
Oggi h: 00:50 sereno Sereno 15 13 87 1013 8 N 3.7
Oggi h: 00:20 sereno Sereno 16 13 82 1013 8 N 3.7
Ieri h: 23:50 sereno Sereno 16 13 82 1013 8 N 3.7
Ieri h: 23:20 sereno Sereno 16 14 87 1013 8 N 5.5
Ieri h: 22:50 sereno Sereno 16 14 87 1013 8 N 3.7